LFHP/LPY METAR and TAF weather

Enter ICAO airport designator
Station Type Date Time Source
LFHP METAR 2019/10/13 19:00 UTC NOAA

LFHP 131900Z AUTO 15006KT 110V210 CAVOK 14/09 Q1020


Station Type Date Time Source
LFHP Decoded METAR 2019/10/13 19:00 UTC NOAA

Le Puy, France (LFHP) 45-05N 003-46E 833M
Oct 13, 2019 - 03:00 PM EDT / 2019.10.13 1900 UTC
Wind: from the SSE (150 degrees) at 7 MPH (6 KT) (direction variable):0
Visibility: greater than 7 mile(s):0
Temperature: 57 F (14 C)
Dew Point: 48 F (9 C)
Relative Humidity: 71%
Pressure (altimeter): 30.12 in. Hg (1020 hPa)
ob: LFHP 131900Z AUTO 15006KT 110V210 CAVOK 14/09 Q1020
cycle: 19

Station Type Date Time Source
LFHP TAF UTC NOAA

Error!

Example: see airport list